Time;durP1;ratioP1;P1;durP2;ratioP2;P2;SDS_P1;SDS_P2;PMS_P1;PMS_P2;Temp;Humidity;BMP_temperature;BMP_pressure;BME280_temperature;BME280_humidity;BME280_pressure;Samples;Min_cycle;Max_cycle;Signal;HPM_P1;HPM_P2
2022/10/14 00:00:41;;;;;;;58.92;55.47;;;;;;;16.66;71.51;101970.50;4978636;28;103868;-55
2022/10/14 00:03:07;;;;;;;52.83;49.72;;;;;;;16.66;71.69;101970.50;4980839;28;102342;-56
2022/10/14 00:05:39;;;;;;;59.67;56.15;;;;;;;16.65;71.53;101969.66;4976516;28;102212;-56
2022/10/14 00:08:08;;;;;;;58.20;54.53;;;;;;;16.65;71.98;101975.16;4991918;28;103473;-56
2022/10/14 00:10:37;;;;;;;54.20;50.90;;;;;;;16.64;71.56;101961.72;4992429;28;104004;-56
2022/10/14 00:13:03;;;;;;;56.45;53.30;;;;;;;16.64;71.63;101968.03;4975201;28;102506;-55
2022/10/14 00:15:36;;;;;;;56.22;52.88;;;;;;;16.65;72.05;101968.84;4975178;28;102310;-56
2022/10/14 00:18:05;;;;;;;54.50;51.35;;;;;;;16.63;71.46;101974.66;4995128;28;102349;-56
2022/10/14 00:20:32;;;;;;;59.08;55.65;;;;;;;16.64;71.36;101968.03;4991575;28;104258;-55
2022/10/14 00:22:59;;;;;;;57.55;54.20;;;;;;;16.63;71.89;101968.31;4976041;28;102302;-56
2022/10/14 00:25:27;;;;;;;59.88;56.40;;;;;;;16.63;71.44;101971.06;4974690;28;102376;-56
2022/10/14 00:27:54;;;;;;;55.05;51.80;;;;;;;16.63;71.43;101968.31;4988223;28;102262;-56
2022/10/14 00:30:20;;;;;;;54.95;51.83;;;;;;;16.63;71.54;101971.06;4988455;28;103897;-56
2022/10/14 00:32:48;;;;;;;57.22;53.85;;;;;;;16.64;71.63;101969.97;4986737;28;102214;-56
2022/10/14 00:35:15;;;;;;;63.20;59.58;;;;;;;16.65;71.76;101966.09;4994781;28;102047;-56
2022/10/14 00:37:42;;;;;;;51.17;48.10;;;;;;;16.64;71.38;101961.72;4997895;28;102204;-56
2022/10/14 00:40:10;;;;;;;58.00;54.70;;;;;;;16.63;71.39;101954.59;4987306;28;103919;-55
2022/10/14 00:42:39;;;;;;;57.25;54.10;;;;;;;16.62;71.57;101959.22;4995967;28;102553;-56
2022/10/14 00:45:12;;;;;;;58.55;54.95;;;;;;;16.63;71.43;101954.59;4997798;28;102169;-56
2022/10/14 00:47:39;;;;;;;53.00;49.72;;;;;;;16.63;71.62;101946.34;4995312;28;103555;-55
2022/10/14 00:50:10;;;;;;;58.27;54.87;;;;;;;16.62;71.47;101952.91;4996740;28;103958;-56
2022/10/14 00:52:38;;;;;;;51.85;48.65;;;;;;;16.64;71.26;101942.47;4996647;28;102486;-56
2022/10/14 00:55:08;;;;;;;54.40;51.08;;;;;;;16.63;71.99;101949.09;4993457;28;103500;-56
2022/10/14 00:57:37;;;;;;;55.05;51.63;;;;;;;16.63;71.98;101954.59;4995330;28;102343;-56
2022/10/14 01:00:07;;;;;;;59.67;55.97;;;;;;;16.62;71.81;101951.00;4979815;28;103946;-56
2022/10/14 01:02:33;;;;;;;61.17;57.38;;;;;;;16.62;71.77;101940.00;4994249;28;102207;-56
2022/10/14 01:05:01;;;;;;;57.55;54.03;;;;;;;16.62;71.37;101947.41;4991355;28;101960;-55
2022/10/14 01:07:44;;;;;;;;;;;;;;;16.62;71.52;101948.25;4986677;28;102425;-55
2022/10/14 01:10:18;;;;;;;52.78;49.45;;;;;;;16.61;71.66;101949.34;4992685;28;103990;-55
2022/10/14 01:13:00;;;;;;;49.58;46.58;;;;;;;16.62;71.85;101947.41;4995910;28;102171;-56
2022/10/14 01:15:37;;;;;;;52.55;49.25;;;;;;;16.61;71.61;101934.78;4996126;28;102225;-55
2022/10/14 01:18:16;;;;;;;54.08;50.80;;;;;;;16.62;71.35;101942.75;4997743;28;102710;-56
2022/10/14 01:21:02;;;;;;;50.15;47.05;;;;;;;16.60;71.63;101941.41;4995751;28;104119;-56
2022/10/14 01:24:01;;;;;;;55.80;52.45;;;;;;;16.61;71.53;101934.78;4986267;28;102126;-56
2022/10/14 01:26:37;;;;;;;;;;;;;;;16.60;71.47;101947.72;4996290;28;102139;-56
2022/10/14 01:29:18;;;;;;;49.45;46.30;;;;;;;16.58;71.63;101945.22;4995393;28;102538;-56
2022/10/14 01:31:57;;;;;;;53.53;50.30;;;;;;;16.58;71.88;101942.50;4994915;28;108175;-56
2022/10/14 01:34:29;;;;;;;53.10;49.87;;;;;;;16.58;71.59;101942.50;4986744;28;102192;-56
2022/10/14 01:37:01;;;;;;;47.45;44.40;;;;;;;16.57;71.64;101949.09;4996981;28;102211;-55
2022/10/14 01:39:31;;;;;;;53.88;50.63;;;;;;;16.58;71.49;101947.97;4997550;28;102131;-56
2022/10/14 01:42:03;;;;;;;56.55;53.15;;;;;;;16.58;71.88;101941.66;4996351;28;104107;-55
2022/10/14 01:44:32;;;;;;;49.88;46.67;;;;;;;16.58;71.49;101936.16;4978654;28;102480;-56
2022/10/14 01:47:03;;;;;;;57.03;53.78;;;;;;;16.58;71.37;101947.16;4984847;28;102379;-56
2022/10/14 01:49:34;;;;;;;57.88;54.45;;;;;;;16.59;71.46;101943.34;4978624;28;102241;-56
2022/10/14 01:52:06;;;;;;;55.60;52.38;;;;;;;16.58;71.57;101953.47;4995778;28;103950;-56
2022/10/14 01:54:36;;;;;;;51.78;48.80;;;;;;;16.57;71.77;101946.34;4995203;28;102350;-56
2022/10/14 01:57:07;;;;;;;54.90;51.65;;;;;;;16.57;71.32;101946.34;4991529;28;102345;-56
2022/10/14 01:59:35;;;;;;;53.55;50.45;;;;;;;16.58;71.43;101947.16;4987673;28;102367;-56
2022/10/14 02:02:04;;;;;;;56.67;53.25;;;;;;;16.56;71.33;101939.22;4982750;28;103895;-56
2022/10/14 02:04:30;;;;;;;54.30;51.17;;;;;;;16.57;71.40;101929.84;4995117;28;102292;-56
2022/10/14 02:07:16;;;;;;;56.35;53.03;;;;;;;16.58;71.39;101930.69;4993459;28;102521;-55
2022/10/14 02:09:54;;;;;;;51.15;48.08;;;;;;;16.57;71.46;101929.84;4996670;28;102490;-55
2022/10/14 02:12:31;;;;;;;58.13;54.67;;;;;;;16.58;71.52;101934.25;4993740;28;103764;-55
2022/10/14 02:15:09;;;;;;;56.60;53.35;;;;;;;16.58;71.61;101930.69;4988889;28;102518;-57
2022/10/14 02:17:46;;;;;;;52.83;49.83;;;;;;;16.58;71.23;101937.00;4990739;28;102358;-56
2022/10/14 02:20:22;;;;;;;54.03;50.88;;;;;;;16.57;71.28;101927.09;4997296;28;102209;-56
2022/10/14 02:22:54;;;;;;;50.63;47.47;;;;;;;16.57;71.29;101931.78;4987889;28;104095;-56
2022/10/14 02:25:25;;;;;;;55.50;52.33;;;;;;;16.57;71.31;101923.53;4995116;28;101977;-56
2022/10/14 02:27:53;;;;;;;54.90;51.75;;;;;;;16.58;71.32;101937.00;4994662;28;102123;-55
2022/10/14 02:30:20;;;;;;;53.58;50.38;;;;;;;16.58;71.41;101931.50;4995630;28;102356;-56
2022/10/14 02:32:50;;;;;;;57.92;54.60;;;;;;;16.57;71.08;101916.13;4994557;28;103845;-56
2022/10/14 02:35:20;;;;;;;51.88;48.80;;;;;;;16.58;71.41;101917.75;4993494;28;102398;-56
2022/10/14 02:37:48;;;;;;;58.33;54.72;;;;;;;16.58;71.75;101925.19;4994895;28;102065;-55
2022/10/14 02:40:19;;;;;;;54.28;51.20;;;;;;;16.58;71.66;101925.19;4994754;28;102300;-56
2022/10/14 02:42:46;;;;;;;54.60;51.45;;;;;;;16.59;71.38;101932.34;4983812;28;104165;-56
2022/10/14 02:45:14;;;;;;;58.30;55.05;;;;;;;16.60;71.48;101938.66;4995321;28;102250;-56
2022/10/14 02:47:41;;;;;;;55.38;52.22;;;;;;;16.58;71.23;101928.75;4976285;28;102142;-56
2022/10/14 02:50:10;;;;;;;56.45;53.30;;;;;;;16.60;71.29;101933.16;4978789;28;102382;-55
2022/10/14 02:52:37;;;;;;;;;;;;;;;16.58;71.51;101937.00;4975195;28;103930;-56
2022/10/14 02:55:05;;;;;;;46.42;43.67;;;;;;;16.58;71.48;101931.50;4985338;28;102625;-56
2022/10/14 02:57:31;;;;;;;51.83;48.85;;;;;;;16.60;71.79;101938.66;4993998;28;102367;-56
2022/10/14 02:59:58;;;;;;;55.40;52.33;;;;;;;16.60;71.50;101935.91;4976816;28;102652;-56
2022/10/14 03:02:25;;;;;;;55.03;51.97;;;;;;;16.59;71.80;101929.59;4990323;28;103963;-56
2022/10/14 03:04:51;;;;;;;53.70;50.55;;;;;;;16.58;71.81;101937.00;4990045;28;102268;-55
2022/10/14 03:07:20;;;;;;;60.60;56.97;;;;;;;16.60;71.57;101938.66;4993477;28;102119;-55
2022/10/14 03:09:46;;;;;;;62.13;58.72;;;;;;;16.60;72.00;101946.91;4981819;28;102444;-55
2022/10/14 03:12:12;;;;;;;56.88;53.70;;;;;;;16.60;71.57;101955.16;4994285;28;104135;-56
2022/10/14 03:14:39;;;;;;;56.10;52.88;;;;;;;16.58;71.84;101937.00;4992800;28;102048;-55
2022/10/14 03:17:15;;;;;;;55.80;52.55;;;;;;;16.60;71.48;101949.66;4992873;28;102024;-55
2022/10/14 03:19:44;;;;;;;57.33;54.20;;;;;;;16.58;71.86;101942.50;4996166;28;102087;-56
2022/10/14 03:22:10;;;;;;;56.65;53.35;;;;;;;16.58;71.86;101934.25;4994123;28;103980;-56
2022/10/14 03:24:38;;;;;;;60.88;57.40;;;;;;;16.60;71.81;101938.66;4993663;28;102420;-56
2022/10/14 03:27:05;;;;;;;66.03;62.30;;;;;;;16.60;71.99;101935.91;4991654;28;102350;-56
2022/10/14 03:29:31;;;;;;;60.88;57.50;;;;;;;16.60;71.79;101941.41;4994249;28;102717;-55
2022/10/14 03:31:58;;;;;;;58.63;55.20;;;;;;;16.58;72.07;101937.00;4994494;28;104891;-56
2022/10/14 03:34:25;;;;;;;58.17;54.97;;;;;;;16.58;71.76;101926.00;4993962;28;102307;-55
2022/10/14 03:36:51;;;;;;;61.38;58.03;;;;;;;16.58;71.88;101926.00;4992297;28;102035;-55
2022/10/14 03:39:20;;;;;;;;;;;;;;;16.58;71.64;101928.75;4995259;28;102188;-55
2022/10/14 03:41:48;;;;;;;47.97;45.08;;;;;;;16.59;71.96;101926.84;4992579;28;103961;-55
2022/10/14 03:44:14;;;;;;;47.15;44.42;;;;;;;16.58;72.08;101931.50;4992461;28;102153;-55
2022/10/14 03:46:41;;;;;;;54.13;51.05;;;;;;;16.57;71.91;101913.38;4993992;28;102461;-55
2022/10/14 03:49:08;;;;;;;54.35;51.33;;;;;;;16.56;72.08;101911.72;4994943;28;102543;-56
2022/10/14 03:51:35;;;;;;;57.03;53.85;;;;;;;16.57;71.67;101913.38;4976696;28;103933;-55
2022/10/14 03:54:02;;;;;;;56.63;53.47;;;;;;;16.56;72.00;101910.91;4985490;28;102277;-55
2022/10/14 03:56:29;;;;;;;60.53;56.92;;;;;;;16.56;71.51;101910.91;4993766;28;102344;-55
2022/10/14 03:58:56;;;;;;;56.40;53.15;;;;;;;16.56;72.17;101908.16;4994549;28;102338;-55
2022/10/14 04:01:23;;;;;;;59.03;55.83;;;;;;;16.55;71.94;101910.09;5000297;28;108070;-55
2022/10/14 04:03:50;;;;;;;55.42;52.40;;;;;;;16.54;71.89;101902.94;4997224;28;102317;-55
2022/10/14 04:06:17;;;;;;;55.47;52.40;;;;;;;16.55;71.68;101912.84;5006193;28;102636;-55
2022/10/14 04:08:44;;;;;;;52.60;49.67;;;;;;;16.55;71.59;101909.25;4977576;28;102440;-56
2022/10/14 04:11:15;;;;;;;55.85;52.70;;;;;;;16.55;71.69;101906.50;4999355;28;104025;-55
2022/10/14 04:13:42;;;;;;;56.67;53.53;;;;;;;16.54;71.85;101902.13;4985454;28;102308;-55
2022/10/14 04:16:12;;;;;;;;;;;;;;;16.53;72.05;101906.78;5007103;28;102378;-55
2022/10/14 04:18:38;;;;;;;45.63;43.13;;;;;;;16.54;71.68;101899.38;4998454;28;102230;-55
2022/10/14 04:21:09;;;;;;;52.17;49.10;;;;;;;16.52;71.85;101910.66;4988258;28;103974;-55
2022/10/14 04:23:36;;;;;;;60.15;56.75;;;;;;;16.53;72.03;101906.78;4982775;28;102562;-55
2022/10/14 04:26:04;;;;;;;52.60;49.78;;;;;;;16.52;71.55;101899.66;4980824;28;102359;-56
2022/10/14 04:28:31;;;;;;;61.22;57.85;;;;;;;16.52;71.94;101902.41;5018677;28;102608;-56
2022/10/14 04:30:58;;;;;;;56.10;52.92;;;;;;;16.53;71.50;101906.78;5012708;28;104996;-56
2022/10/14 04:33:26;;;;;;;53.03;49.97;;;;;;;16.52;71.81;101905.16;4977928;28;102051;-55
2022/10/14 04:35:56;;;;;;;55.23;52.10;;;;;;;16.52;71.51;101907.91;4984620;28;102448;-56
2022/10/14 04:38:23;;;;;;;57.45;54.17;;;;;;;16.52;71.78;101902.41;5006111;28;104864;-56
2022/10/14 04:40:50;;;;;;;52.95;49.88;;;;;;;16.52;72.03;101910.66;5017181;28;103918;-56
2022/10/14 04:43:16;;;;;;;57.13;53.95;;;;;;;16.52;71.58;101910.66;5000864;28;102762;-55
2022/10/14 04:45:46;;;;;;;58.80;55.60;;;;;;;16.52;72.11;101916.16;4996972;28;102315;-55
2022/10/14 04:48:12;;;;;;;58.80;55.45;;;;;;;16.52;71.51;101910.66;4991041;28;102525;-56
2022/10/14 04:50:41;;;;;;;54.72;51.70;;;;;;;16.53;71.82;101905.97;4990300;28;104168;-55
2022/10/14 04:53:08;;;;;;;57.10;53.85;;;;;;;16.53;71.82;101911.47;4982020;28;102380;-55
2022/10/14 04:55:35;;;;;;;59.90;56.45;;;;;;;16.54;71.66;101913.09;4981461;28;102088;-55
2022/10/14 04:58:02;;;;;;;53.83;50.85;;;;;;;16.53;71.44;101909.53;4983550;28;102784;-55
2022/10/14 05:00:29;;;;;;;54.72;51.63;;;;;;;16.54;71.61;101924.91;4986294;28;104061;-55
2022/10/14 05:02:55;;;;;;;59.80;56.45;;;;;;;16.54;71.89;101924.91;4999502;28;102480;-55
2022/10/14 05:05:22;;;;;;;63.22;59.72;;;;;;;16.55;72.24;101929.34;5010267;28;102710;-55
2022/10/14 05:07:50;;;;;;;59.08;55.78;;;;;;;16.54;72.37;101919.41;5017460;28;102205;-55
2022/10/14 05:10:17;;;;;;;62.10;58.65;;;;;;;16.56;72.57;101919.97;5015672;28;103983;-55
2022/10/14 05:12:43;;;;;;;65.05;61.53;;;;;;;16.57;72.62;101929.84;5013401;28;102799;-55
2022/10/14 05:15:11;;;;;;;56.65;53.45;;;;;;;16.58;72.50;101923.25;5000684;28;102163;-55
2022/10/14 05:17:43;;;;;;;63.85;60.45;;;;;;;16.58;73.13;101928.75;5011008;28;102446;-55
2022/10/14 05:20:10;;;;;;;62.13;58.80;;;;;;;16.58;72.27;101926.00;5015665;28;103937;-55
2022/10/14 05:22:37;;;;;;;57.38;54.17;;;;;;;16.60;72.60;101933.97;5008102;28;102373;-55
2022/10/14 05:25:05;;;;;;;60.65;57.13;;;;;;;16.61;72.14;101935.63;5011011;28;102297;-56
2022/10/14 05:27:32;;;;;;;60.67;57.17;;;;;;;16.61;71.56;101941.09;5012184;28;102791;-55
2022/10/14 05:29:58;;;;;;;61.33;58.00;;;;;;;16.61;71.36;101945.78;5016287;28;104179;-55
2022/10/14 05:32:25;;;;;;;58.20;54.90;;;;;;;16.59;71.93;101937.84;5010121;28;102253;-55
2022/10/14 05:34:51;;;;;;;56.92;53.78;;;;;;;16.60;71.06;101933.16;5011083;28;102407;-55
2022/10/14 05:37:18;;;;;;;63.03;59.47;;;;;;;16.58;71.10;101937.00;5000782;28;102319;-55
2022/10/14 05:39:44;;;;;;;53.30;50.08;;;;;;;16.58;71.63;101931.50;5006522;28;103952;-55
2022/10/14 05:42:15;;;;;;;57.17;53.92;;;;;;;16.57;71.52;101935.34;5015023;28;102670;-55
2022/10/14 05:44:42;;;;;;;57.83;54.58;;;;;;;16.58;71.62;101947.16;5002331;28;102264;-55
2022/10/14 05:47:09;;;;;;;55.90;52.70;;;;;;;16.59;71.89;101937.84;5005496;28;102399;-55
2022/10/14 05:49:36;;;;;;;59.47;56.10;;;;;;;16.60;71.77;101939.47;5004635;28;104241;-55
2022/10/14 05:52:03;;;;;;;58.70;55.50;;;;;;;16.59;71.94;101937.84;5004108;28;102361;-55
2022/10/14 05:54:29;;;;;;;55.58;52.45;;;;;;;16.60;72.08;101938.66;5008018;28;102150;-55
2022/10/14 05:56:56;;;;;;;55.30;52.17;;;;;;;16.60;72.07;101949.66;5013086;28;102339;-55
2022/10/14 05:59:24;;;;;;;57.47;54.05;;;;;;;16.61;nan;101945.78;5016126;28;103893;-55
2022/10/14 06:01:50;;;;;;;58.30;54.90;;;;;;;16.62;71.50;101936.44;5012964;28;102407;-55
2022/10/14 06:04:19;;;;;;;65.10;61.55;;;;;;;16.61;71.64;101943.84;5010914;28;101912;-55
2022/10/14 06:06:46;;;;;;;61.88;58.38;;;;;;;16.61;71.66;101940.28;4998468;28;102387;-55
2022/10/14 06:09:12;;;;;;;55.72;52.72;;;;;;;16.61;71.59;101937.53;4990752;28;103867;-55
2022/10/14 06:11:39;;;;;;;59.60;56.25;;;;;;;16.61;71.57;101940.28;4993672;28;102246;-55
2022/10/14 06:14:07;;;;;;;57.83;54.63;;;;;;;16.60;71.74;101938.66;4990142;28;102345;-55
2022/10/14 06:16:36;;;;;;;55.15;52.03;;;;;;;16.58;71.37;101934.25;5015327;28;102385;-55
2022/10/14 06:19:02;;;;;;;53.70;50.63;;;;;;;16.60;71.06;101933.16;5002661;28;103810;-55
2022/10/14 06:21:29;;;;;;;60.38;56.85;;;;;;;16.61;70.77;101940.28;5002980;28;102337;-55
2022/10/14 06:23:55;;;;;;;56.63;53.33;;;;;;;16.62;70.96;101939.19;4982133;28;104624;-55
2022/10/14 06:26:22;;;;;;;53.58;50.65;;;;;;;16.63;71.14;101938.09;4996679;28;102459;-55
2022/10/14 06:28:49;;;;;;;54.85;51.70;;;;;;;16.62;70.82;101942.75;4974904;28;104066;-55
2022/10/14 06:31:16;;;;;;;51.97;49.10;;;;;;;16.63;70.97;101943.59;4982006;28;102320;-55
2022/10/14 06:33:44;;;;;;;55.97;52.85;;;;;;;16.64;70.41;101943.28;4975781;28;102625;-55
2022/10/14 06:36:10;;;;;;;51.10;48.20;;;;;;;16.64;70.62;101942.47;4988558;28;102257;-55
2022/10/14 06:38:38;;;;;;;53.72;50.80;;;;;;;16.63;70.24;101949.09;4984948;28;103939;-55
2022/10/14 06:41:04;;;;;;;52.80;49.90;;;;;;;16.63;70.18;101938.91;4982921;28;102464;-55
2022/10/14 06:43:31;;;;;;;58.05;54.83;;;;;;;16.67;70.13;101945.50;4986081;28;102290;-55
2022/10/14 06:45:58;;;;;;;54.38;51.30;;;;;;;16.66;69.25;101943.84;4985526;28;102193;-55
2022/10/14 06:48:24;;;;;;;54.08;51.15;;;;;;;16.69;68.98;101947.94;4984014;28;103947;-56
2022/10/14 06:50:53;;;;;;;51.45;48.63;;;;;;;16.68;68.87;101949.88;4989323;28;102112;-56
2022/10/14 06:53:19;;;;;;;54.28;51.30;;;;;;;16.68;68.71;101946.31;4994820;28;102383;-55
2022/10/14 06:55:46;;;;;;;56.30;52.85;;;;;;;16.70;68.25;101949.59;4994844;28;102853;-55
2022/10/14 06:58:12;;;;;;;53.50;50.70;;;;;;;16.72;66.86;101958.38;4992924;28;104067;-56
2022/10/14 07:00:39;;;;;;;59.83;56.47;;;;;;;16.72;67.31;101947.38;4989704;28;102349;-55
2022/10/14 07:03:05;;;;;;;58.75;55.50;;;;;;;16.73;66.83;101954.50;4992506;28;102129;-55
2022/10/14 07:05:32;;;;;;;61.75;58.40;;;;;;;16.74;67.13;101957.03;4994312;28;103814;-56
2022/10/14 07:08:01;;;;;;;64.00;60.47;;;;;;;16.76;66.74;101951.22;4990245;28;103975;-55
2022/10/14 07:10:33;;;;;;;64.65;61.30;;;;;;;16.78;65.99;101951.78;4989971;28;102364;-56
2022/10/14 07:13:01;;;;;;;67.18;63.47;;;;;;;16.77;66.73;101955.66;4994793;28;102439;-55
2022/10/14 07:15:27;;;;;;;65.97;62.40;;;;;;;16.80;65.81;101955.06;4992062;28;103045;-56
2022/10/14 07:17:54;;;;;;;67.28;63.50;;;;;;;16.79;65.93;101942.41;4993621;28;103995;-56
2022/10/14 07:20:25;;;;;;;61.83;58.50;;;;;;;16.81;65.84;101951.22;4982733;28;102337;-55
2022/10/14 07:22:55;;;;;;;67.10;63.55;;;;;;;16.84;65.76;101955.31;4985019;28;102540;-55
2022/10/14 07:25:23;;;;;;;61.95;58.47;;;;;;;16.82;66.05;101952.84;4986766;28;102294;-56
2022/10/14 07:27:54;;;;;;;66.72;63.03;;;;;;;16.82;65.47;101950.09;4982201;28;103958;-55
2022/10/14 07:30:21;;;;;;;62.28;58.97;;;;;;;16.82;64.98;101947.38;4983459;28;102710;-56
2022/10/14 07:32:49;;;;;;;64.32;60.85;;;;;;;16.84;64.64;101945.16;4994563;28;102472;-55
2022/10/14 07:35:17;;;;;;;62.75;59.38;;;;;;;16.84;64.85;101956.16;4981621;28;102267;-55
2022/10/14 07:37:45;;;;;;;61.22;58.00;;;;;;;16.84;64.66;101950.66;4996352;28;103901;-55
2022/10/14 07:40:12;;;;;;;67.32;63.88;;;;;;;16.83;64.73;101951.75;4997802;28;102110;-55
2022/10/14 07:42:40;;;;;;;54.45;51.42;;;;;;;16.84;65.17;101956.16;4989407;28;102196;-55
2022/10/14 07:45:08;;;;;;;58.67;55.57;;;;;;;16.84;64.83;101949.81;4996884;28;102300;-55
2022/10/14 07:47:35;;;;;;;55.08;52.15;;;;;;;16.85;64.39;101954.22;4996667;28;105048;-56
2022/10/14 07:50:02;;;;;;;53.70;50.80;;;;;;;16.86;63.46;101956.69;4988204;28;102581;-56
2022/10/14 07:52:29;;;;;;;53.47;50.63;;;;;;;16.87;63.32;101949.25;4989556;28;102599;-56
2022/10/14 07:54:55;;;;;;;50.85;48.15;;;;;;;16.86;63.25;101945.69;4994263;28;102233;-55
2022/10/14 07:57:22;;;;;;;48.15;45.40;;;;;;;16.86;62.56;101948.44;4992619;28;103890;-55
2022/10/14 07:59:51;;;;;;;48.53;45.88;;;;;;;16.87;64.05;101950.06;4996473;28;102382;-55
2022/10/14 08:02:18;;;;;;;53.53;50.40;;;;;;;16.86;63.23;101942.13;4996526;28;102942;-55
2022/10/14 08:04:46;;;;;;;45.45;42.97;;;;;;;16.90;63.14;101949.50;4989860;28;102256;-55
2022/10/14 08:07:14;;;;;;;44.90;42.45;;;;;;;16.89;62.98;101941.56;4989126;28;103513;-56
2022/10/14 08:09:43;;;;;;;42.80;40.53;;;;;;;16.88;62.88;101938.00;5002230;28;102274;-56
2022/10/14 08:12:11;;;;;;;49.10;46.45;;;;;;;16.87;63.92;101938.25;4995208;28;104396;-59
2022/10/14 08:14:38;;;;;;;47.05;44.00;;;;;;;16.67;59.71;101939.16;5000859;28;102572;-59
2022/10/14 08:17:07;;;;;;;30.15;28.45;;;;;;;16.61;60.60;101943.03;5014718;28;105027;-59
2022/10/14 08:19:33;;;;;;;22.98;21.02;;;;;;;16.62;53.80;101939.19;5008642;28;102290;-56
2022/10/14 08:22:00;;;;;;;27.23;24.98;;;;;;;16.68;59.68;101941.63;5013757;28;102256;-56
2022/10/14 08:24:28;;;;;;;23.00;21.37;;;;;;;16.74;58.50;101946.03;5013497;28;102169;-56
2022/10/14 08:26:59;;;;;;;22.93;21.63;;;;;;;16.79;59.70;101939.69;5009375;28;104749;-56
2022/10/14 08:29:26;;;;;;;20.10;18.73;;;;;;;16.77;59.42;101933.66;4992894;28;102444;-55
2022/10/14 08:31:54;;;;;;;21.90;20.70;;;;;;;16.80;58.81;101933.91;4999670;28;102740;-56
2022/10/14 08:34:23;;;;;;;20.25;18.95;;;;;;;16.80;59.00;101933.06;4995820;28;102465;-56
2022/10/14 08:36:50;;;;;;;17.60;16.45;;;;;;;16.83;58.13;101927.00;4989370;28;103952;-55
2022/10/14 08:39:18;;;;;;;17.25;15.85;;;;;;;16.84;58.00;101928.66;4995151;28;102467;-55
2022/10/14 08:42:21;;;;;;;15.45;13.95;;;;;;;16.86;57.75;101922.88;4991094;28;102027;-56
2022/10/14 08:44:54;;;;;;;14.55;13.40;;;;;;;16.84;58.16;101925.91;4981452;28;102693;-56
2022/10/14 08:47:25;;;;;;;14.23;13.23;;;;;;;16.84;57.84;101923.16;4996717;28;104043;-56
2022/10/14 08:50:00;;;;;;;12.55;11.75;;;;;;;16.83;57.54;101916.00;4981121;28;102234;-55
2022/10/14 08:52:32;;;;;;;11.98;11.27;;;;;;;16.82;57.66;101919.88;4995494;28;102343;-55
2022/10/14 08:55:03;;;;;;;12.38;11.48;;;;;;;16.85;57.24;101918.50;4985017;28;102739;-56
2022/10/14 08:57:48;;;;;;;12.20;11.30;;;;;;;16.84;57.17;101916.81;4991937;28;104029;-56
2022/10/14 09:00:20;;;;;;;11.82;10.93;;;;;;;16.83;57.24;101927.00;4994011;28;102359;-55
2022/10/14 09:02:49;;;;;;;13.82;12.93;;;;;;;16.83;58.66;101921.50;4990281;28;102471;-55
2022/10/14 09:05:21;;;;;;;11.98;11.20;;;;;;;16.80;58.81;101927.56;4992794;28;105072;-56
2022/10/14 09:07:49;;;;;;;12.73;11.93;;;;;;;16.82;58.15;101919.88;4990412;28;104166;-56
2022/10/14 09:10:26;;;;;;;11.70;10.73;;;;;;;16.84;58.08;101923.16;4989259;28;104810;-56
2022/10/14 09:12:58;;;;;;;9.80;9.20;;;;;;;16.83;58.40;101921.50;4986626;28;102282;-56
2022/10/14 09:15:31;;;;;;;11.18;10.38;;;;;;;16.83;58.08;101929.75;4990566;28;102503;-56
2022/10/14 09:18:03;;;;;;;11.00;10.20;;;;;;;16.82;57.86;101925.38;4988151;28;109526;-56
2022/10/14 09:20:32;;;;;;;10.98;10.27;;;;;;;16.86;57.96;101917.38;4980673;28;102503;-56
2022/10/14 09:23:18;;;;;;;9.77;9.13;;;;;;;16.82;57.68;101914.38;4996557;28;102258;-56
2022/10/14 09:25:56;;;;;;;10.75;9.95;;;;;;;16.83;57.55;101916.00;4996061;28;102225;-56
2022/10/14 09:28:35;;;;;;;9.53;8.83;;;;;;;16.80;57.51;101911.06;4985586;28;104073;-55
2022/10/14 09:31:02;;;;;;;9.60;8.88;;;;;;;16.81;58.04;101918.22;4982638;28;102202;-56
2022/10/14 09:33:38;;;;;;;10.27;9.68;;;;;;;16.79;57.80;101915.75;4989448;28;102146;-56
2022/10/14 09:36:14;;;;;;;10.15;9.63;;;;;;;16.80;57.69;101922.06;5007175;28;102764;-56
2022/10/14 09:38:41;;;;;;;10.88;10.27;;;;;;;16.79;58.41;101923.19;4986155;28;104493;-56
2022/10/14 09:41:13;;;;;;;9.20;8.68;;;;;;;16.78;58.37;101925.13;5008823;28;101991;-56
2022/10/14 09:44:28;;;;;;;9.65;9.15;;;;;;;16.78;57.76;101921.53;5000522;28;102081;-56
2022/10/14 09:46:58;;;;;;;9.98;9.38;;;;;;;16.80;57.40;101914.66;4954606;28;102401;-56
2022/10/14 09:49:33;;;;;;;9.48;8.98;;;;;;;16.78;57.83;101918.78;5014252;28;108470;-56
2022/10/14 09:52:02;;;;;;;9.00;8.50;;;;;;;16.77;57.25;101919.91;5005668;28;102449;-56
2022/10/14 09:54:31;;;;;;;10.20;9.50;;;;;;;16.77;57.34;101912.47;5012808;28;102159;-55
2022/10/14 09:57:01;;;;;;;9.23;8.73;;;;;;;16.74;57.82;101918.53;5004278;28;102426;-56
2022/10/14 09:59:30;;;;;;;10.35;9.75;;;;;;;16.76;57.28;101908.06;5001512;28;103878;-55
2022/10/14 10:02:00;;;;;;;9.27;8.40;;;;;;;16.76;56.77;101901.75;5014913;28;104068;-55
2022/10/14 10:04:34;;;;;;;9.38;8.77;;;;;;;16.72;57.79;101906.97;5007984;28;102311;-56
2022/10/14 10:07:05;;;;;;;8.68;8.18;;;;;;;16.73;58.06;101910.53;5013305;28;102308;-55
2022/10/14 10:09:33;;;;;;;8.88;8.38;;;;;;;16.73;57.21;101896.78;5008526;28;103879;-55
2022/10/14 10:12:23;;;;;;;8.07;7.57;;;;;;;16.70;57.26;101900.94;5016219;28;102418;-56
2022/10/14 10:14:56;;;;;;;7.70;7.10;;;;;;;16.73;57.60;101902.28;5010578;28;102398;-55
2022/10/14 10:17:26;;;;;;;9.18;8.48;;;;;;;16.70;57.71;101906.44;5015118;28;102274;-56
2022/10/14 10:20:18;;;;;;;9.32;8.85;;;;;;;16.71;58.17;101896.25;5006878;28;104087;-56
2022/10/14 10:22:47;;;;;;;8.02;7.35;;;;;;;16.70;57.36;101894.63;4997603;28;102226;-56
2022/10/14 10:25:26;;;;;;;8.65;7.85;;;;;;;16.69;57.71;101899.28;5009613;28;102293;-55
2022/10/14 10:27:57;;;;;;;7.68;7.18;;;;;;;16.70;57.39;101889.94;5008991;28;102079;-55
2022/10/14 10:30:26;;;;;;;8.65;8.15;;;;;;;16.72;55.72;101887.72;5003857;28;103735;-56
2022/10/14 10:33:07;;;;;;;7.63;7.20;;;;;;;16.75;55.71;101880.88;5010832;28;104652;-55
2022/10/14 10:36:01;;;;;;;7.88;7.38;;;;;;;16.69;56.04;101876.47;4996571;28;102356;-55
2022/10/14 10:38:34;;;;;;;8.25;7.75;;;;;;;16.67;57.67;101881.44;5002684;28;102196;-55
2022/10/14 10:41:18;;;;;;;9.68;9.07;;;;;;;16.68;59.79;101883.09;5005651;28;103968;-56
2022/10/14 10:44:08;;;;;;;9.35;8.95;;;;;;;16.69;59.16;101884.72;4998240;28;102301;-55
2022/10/14 10:46:43;;;;;;;;;;;;;;;16.70;60.01;101884.44;5005252;28;102691;-55
2022/10/14 10:49:22;;;;;;;10.18;9.63;;;;;;;16.68;59.16;101885.84;5008191;28;103060;-56
2022/10/14 10:51:54;;;;;;;10.48;9.95;;;;;;;16.67;59.59;101878.69;4999583;28;103918;-55
2022/10/14 10:54:42;;;;;;;10.65;10.13;;;;;;;16.68;60.88;101881.16;5017527;28;102350;-56
2022/10/14 10:57:23;;;;;;;13.25;12.45;;;;;;;16.66;61.42;101885.28;5015296;28;101901;-55
2022/10/14 10:59:55;;;;;;;14.60;13.70;;;;;;;16.66;62.78;101877.88;4997433;28;102411;-55
2022/10/14 11:02:55;;;;;;;13.10;12.40;;;;;;;16.64;62.52;101874.59;5002983;28;103885;-56
2022/10/14 11:05:40;;;;;;;14.63;13.80;;;;;;;16.64;62.60;101873.78;5015902;28;102012;-56
2022/10/14 11:14:40;;;;;;;13.82;13.13;;;;;;;16.65;62.16;101864.41;5002861;28;107797;-56
2022/10/14 11:17:17;;;;;;;18.30;17.30;;;;;;;16.64;62.86;101868.28;4995562;28;102307;-55
2022/10/14 11:19:51;;;;;;;17.35;16.42;;;;;;;16.64;62.74;101869.09;4997730;28;102376;-55
2022/10/14 11:22:37;;;;;;;17.50;16.60;;;;;;;16.65;63.01;101865.22;5006558;28;102197;-56
2022/10/14 11:25:16;;;;;;;18.85;17.95;;;;;;;16.66;62.12;101868.78;4995732;28;103945;-56